Time;durP1;ratioP1;P1;durP2;ratioP2;P2;SDS_P1;SDS_P2;PMS_P1;PMS_P2;Temp;Humidity;BMP_temperature;BMP_pressure;BME280_temperature;BME280_humidity;BME280_pressure;Samples;Min_cycle;Max_cycle;Signal;HPM_P1;HPM_P2
2021/04/01 00:00:19;;;;;;;28.97;25.77;;;11.40;1.00;;;;;;5014366;28;20472;-79
2021/04/01 00:02:47;;;;;;;27.13;24.27;;;11.40;1.00;;;;;;5019864;28;20441;-82
2021/04/01 00:05:15;;;;;;;30.97;26.53;;;11.30;1.00;;;;;;5028669;28;20491;-83
2021/04/01 00:07:41;;;;;;;30.30;25.67;;;11.30;1.00;;;;;;5029455;28;20468;-83
2021/04/01 00:10:11;;;;;;;29.98;27.05;;;11.30;1.00;;;;;;5026038;28;21060;-83
2021/04/01 00:12:38;;;;;;;26.93;24.07;;;11.30;1.00;;;;;;5020538;28;20226;-86
2021/04/01 00:15:06;;;;;;;29.40;26.20;;;11.30;1.00;;;;;;5032034;28;21132;-82
2021/04/01 00:17:33;;;;;;;28.90;25.83;;;11.30;1.00;;;;;;5018344;28;20929;-77
2021/04/01 00:19:59;;;;;;;29.67;26.47;;;11.30;1.00;;;;;;5016888;28;20489;-81
2021/04/01 00:22:25;;;;;;;27.97;25.20;;;11.30;1.00;;;;;;5021737;28;20532;-76
2021/04/01 00:24:51;;;;;;;30.20;27.00;;;11.30;1.00;;;;;;5037897;28;20434;-79
2021/04/01 00:27:18;;;;;;;32.63;28.47;;;11.20;1.00;;;;;;5046365;28;20445;-76
2021/04/01 00:29:45;;;;;;;34.47;27.53;;;11.20;1.00;;;;;;5042103;28;20479;-80
2021/04/01 00:32:11;;;;;;;30.70;27.57;;;11.20;1.00;;;;;;5020353;28;21948;-78
2021/04/01 00:34:37;;;;;;;29.30;26.07;;;11.20;1.00;;;;;;5035498;28;21410;-78
2021/04/01 00:37:04;;;;;;;31.43;28.07;;;11.20;1.00;;;;;;5024742;28;20522;-79
2021/04/01 00:39:30;;;;;;;30.20;26.90;;;11.30;1.00;;;;;;5023873;28;21128;-79
2021/04/01 00:41:57;;;;;;;37.73;29.03;;;11.30;1.00;;;;;;5026681;28;21905;-77
2021/04/01 00:44:25;;;;;;;31.00;27.77;;;11.40;1.00;;;;;;5033099;28;20460;-77
2021/04/01 00:46:51;;;;;;;36.73;28.67;;;11.40;1.00;;;;;;5026100;28;20606;-80
2021/04/01 00:49:17;;;;;;;32.10;28.70;;;11.40;1.00;;;;;;5029087;28;20476;-78
2021/04/01 00:51:44;;;;;;;32.40;28.60;;;11.50;1.00;;;;;;5036811;28;20464;-78
2021/04/01 00:54:10;;;;;;;33.60;30.00;;;11.50;1.00;;;;;;5039631;28;20415;-78
2021/04/01 00:56:38;;;;;;;31.63;28.20;;;11.50;1.00;;;;;;5041468;28;20495;-76
2021/04/01 00:59:06;;;;;;;34.50;30.70;;;11.40;1.00;;;;;;5038346;28;20494;-76
2021/04/01 01:01:38;;;;;;;32.83;29.40;;;11.30;1.00;;;;;;5030654;28;20461;-77
2021/04/01 01:04:04;;;;;;;35.67;30.73;;;11.30;1.00;;;;;;5033808;28;20849;-78
2021/04/01 01:06:31;;;;;;;35.53;30.87;;;11.20;1.00;;;;;;5039795;28;20471;-79
2021/04/01 01:08:58;;;;;;;34.27;30.53;;;11.10;1.00;;;;;;5028484;28;20471;-78
2021/04/01 01:11:25;;;;;;;32.47;27.43;;;11.00;1.00;;;;;;5028346;28;20469;-79
2021/04/01 01:13:51;;;;;;;29.83;26.97;;;11.00;1.00;;;;;;5027318;28;20446;-77
2021/04/01 01:16:17;;;;;;;33.47;30.10;;;11.00;1.00;;;;;;5024126;28;20483;-78
2021/04/01 01:18:45;;;;;;;30.93;27.70;;;10.90;1.00;;;;;;5022840;28;20546;-78
2021/04/01 01:21:11;;;;;;;32.67;29.03;;;10.90;1.00;;;;;;5020734;28;20445;-76
2021/04/01 01:23:41;;;;;;;34.17;30.07;;;10.90;1.00;;;;;;5021214;28;20541;-80
2021/04/01 01:26:08;;;;;;;35.00;28.97;;;10.90;1.00;;;;;;5025193;28;20440;-78
2021/04/01 01:28:35;;;;;;;28.57;25.33;;;10.80;1.00;;;;;;5016147;28;21827;-76
2021/04/01 01:31:01;;;;;;;36.23;25.67;;;10.80;1.00;;;;;;5021971;28;21097;-77
2021/04/01 01:33:28;;;;;;;29.53;25.37;;;10.80;1.00;;;;;;5023570;28;20464;-77
2021/04/01 01:35:55;;;;;;;28.80;24.30;;;10.70;1.00;;;;;;5024636;28;20530;-79
2021/04/01 01:38:22;;;;;;;31.58;25.17;;;10.70;1.00;;;;;;5027825;28;20475;-77
2021/04/01 01:40:48;;;;;;;27.70;24.73;;;10.80;1.00;;;;;;5022136;28;20304;-77
2021/04/01 01:43:16;;;;;;;26.13;22.53;;;10.80;1.00;;;;;;5023418;28;20457;-77
2021/04/01 01:45:44;;;;;;;28.70;25.67;;;10.80;1.00;;;;;;5021013;28;20448;-78
2021/04/01 01:48:11;;;;;;;26.80;23.50;;;10.70;1.00;;;;;;5037616;28;20463;-76
2021/04/01 01:50:39;;;;;;;24.53;21.73;;;10.70;1.00;;;;;;5028133;28;20525;-78
2021/04/01 01:53:06;;;;;;;25.30;22.95;;;10.70;1.00;;;;;;5025584;28;20650;-78
2021/04/01 01:55:34;;;;;;;26.63;22.20;;;10.70;1.00;;;;;;5028070;28;20234;-78
2021/04/01 01:58:00;;;;;;;26.03;23.30;;;10.70;1.00;;;;;;5019654;28;20555;-80
2021/04/01 02:00:30;;;;;;;26.63;22.73;;;10.70;1.00;;;;;;5022181;28;20466;-77
2021/04/01 02:02:58;;;;;;;26.10;21.70;;;10.70;1.00;;;;;;5041336;28;20457;-81
2021/04/01 02:05:26;;;;;;;23.30;20.83;;;10.70;1.00;;;;;;5036899;28;20409;-78
2021/04/01 02:07:53;;;;;;;31.20;24.73;;;10.70;1.00;;;;;;5030486;28;20313;-80
2021/04/01 02:10:22;;;;;;;23.90;21.50;;;10.70;1.00;;;;;;5018629;28;20463;-81
2021/04/01 02:12:48;;;;;;;25.40;22.67;;;10.70;1.00;;;;;;5023434;28;21084;-78
2021/04/01 02:15:17;;;;;;;26.30;23.60;;;10.80;1.00;;;;;;5022337;28;20455;-80
2021/04/01 02:17:44;;;;;;;26.17;21.95;;;10.80;1.00;;;;;;5046694;28;20455;-78
2021/04/01 02:20:11;;;;;;;29.55;23.13;;;10.80;1.00;;;;;;5022995;28;20234;-79
2021/04/01 02:22:38;;;;;;;27.80;23.83;;;10.80;1.00;;;;;;5040971;28;21550;-77
2021/04/01 02:25:05;;;;;;;24.57;21.93;;;10.80;1.00;;;;;;5047875;28;20404;-77
2021/04/01 02:27:32;;;;;;;28.60;22.70;;;10.90;1.00;;;;;;5027854;28;20970;-79
2021/04/01 02:29:59;;;;;;;27.65;21.83;;;10.90;1.00;;;;;;5025017;28;20530;-78
2021/04/01 02:32:25;;;;;;;25.10;21.87;;;10.90;1.00;;;;;;5023628;28;20230;-81
2021/04/01 02:34:52;;;;;;;35.13;22.03;;;11.00;1.00;;;;;;5020730;28;22864;-78
2021/04/01 02:37:19;;;;;;;24.93;21.93;;;11.00;1.00;;;;;;5032613;28;20460;-81
2021/04/01 02:39:45;;;;;;;27.05;22.35;;;11.00;1.00;;;;;;5026027;28;20546;-81
2021/04/01 02:42:12;;;;;;;24.33;21.17;;;11.00;1.00;;;;;;5034682;28;20395;-82
2021/04/01 02:44:39;;;;;;;24.27;21.70;;;11.10;1.00;;;;;;5033459;28;20508;-82
2021/04/01 02:47:05;;;;;;;22.67;20.23;;;11.10;1.00;;;;;;5032848;28;20456;-82
2021/04/01 02:49:32;;;;;;;21.77;19.58;;;11.10;1.00;;;;;;5032547;28;20460;-83
2021/04/01 02:52:00;;;;;;;27.80;22.33;;;11.10;1.00;;;;;;5042073;28;20225;-82
2021/04/01 02:54:26;;;;;;;24.43;21.00;;;11.20;1.00;;;;;;5037638;28;20574;-78
2021/04/01 02:56:52;;;;;;;27.47;23.70;;;11.20;1.00;;;;;;5027792;28;20588;-78
2021/04/01 02:59:19;;;;;;;31.17;23.23;;;11.20;1.00;;;;;;5027254;28;20432;-77
2021/04/01 03:01:45;;;;;;;25.10;21.87;;;11.20;1.00;;;;;;5027854;28;20996;-78
2021/04/01 03:04:12;;;;;;;25.97;21.47;;;11.20;1.00;;;;;;5042892;28;20493;-79
2021/04/01 03:06:38;;;;;;;26.60;21.10;;;11.20;1.00;;;;;;5031699;28;20531;-80
2021/04/01 03:09:06;;;;;;;25.60;20.17;;;11.10;1.00;;;;;;5030984;28;20583;-78
2021/04/01 03:11:32;;;;;;;31.33;23.85;;;11.10;1.00;;;;;;5028144;28;20462;-79
2021/04/01 03:13:59;;;;;;;25.73;21.80;;;11.00;1.00;;;;;;5028615;28;20728;-77
2021/04/01 03:16:25;;;;;;;26.30;22.37;;;11.00;1.00;;;;;;5028766;28;20642;-78
2021/04/01 03:18:52;;;;;;;25.60;21.80;;;10.90;1.00;;;;;;5025792;28;20453;-76
2021/04/01 03:21:18;;;;;;;23.40;20.60;;;10.80;1.00;;;;;;5023811;28;20484;-79
2021/04/01 03:23:44;;;;;;;26.40;22.97;;;10.80;1.00;;;;;;5027234;28;20456;-80
2021/04/01 03:26:11;;;;;;;26.10;23.27;;;10.80;1.00;;;;;;5022915;28;20963;-78
2021/04/01 03:28:38;;;;;;;23.45;21.05;;;10.70;1.00;;;;;;5025231;28;20444;-78
2021/04/01 03:31:04;;;;;;;23.63;20.27;;;10.70;1.00;;;;;;5023758;28;20225;-80
2021/04/01 03:33:31;;;;;;;26.20;21.73;;;10.70;1.00;;;;;;5027284;28;20270;-77
2021/04/01 03:35:58;;;;;;;24.30;21.77;;;10.70;1.00;;;;;;5037623;28;20451;-78
2021/04/01 03:38:25;;;;;;;20.80;18.67;;;10.70;1.00;;;;;;5032483;28;20425;-80
2021/04/01 03:40:53;;;;;;;26.40;22.43;;;10.70;1.00;;;;;;5030605;28;21470;-78
2021/04/01 03:43:21;;;;;;;22.07;18.40;;;10.70;1.00;;;;;;5036538;28;20446;-77
2021/04/01 03:45:47;;;;;;;24.97;20.40;;;10.70;1.00;;;;;;5037791;28;21122;-81
2021/04/01 03:48:14;;;;;;;27.70;19.83;;;10.80;1.00;;;;;;5027279;28;20429;-78
2021/04/01 03:50:40;;;;;;;25.23;18.83;;;10.80;1.00;;;;;;5033517;28;20448;-76
2021/04/01 03:53:07;;;;;;;25.67;19.47;;;10.80;1.00;;;;;;5041232;28;20472;-78
2021/04/01 03:55:39;;;;;;;21.80;18.50;;;10.80;1.00;;;;;;5033933;28;21099;-79
2021/04/01 04:01:00;;;;;;;23.60;17.93;;;10.90;1.00;;;;;;5022769;28;20429;-81
2021/04/01 04:03:40;;;;;;;26.60;19.77;;;10.90;1.00;;;;;;5031563;28;20447;-78
2021/04/01 04:06:15;;;;;;;22.83;18.93;;;11.00;1.00;;;;;;5035849;28;20472;-77
2021/04/01 04:09:01;;;;;;;22.40;18.37;;;11.10;1.00;;;;;;5038063;28;20460;-79
2021/04/01 04:11:32;;;;;;;25.57;16.80;;;11.20;1.00;;;;;;5028750;28;21061;-80
2021/04/01 04:14:04;;;;;;;26.90;17.40;;;11.20;1.00;;;;;;5023698;28;20558;-80
2021/04/01 04:16:32;;;;;;;21.67;16.17;;;11.40;1.00;;;;;;5023495;28;20537;-77
2021/04/01 04:18:58;;;;;;;20.30;16.13;;;11.50;1.00;;;;;;5025000;28;20459;-79
2021/04/01 04:21:24;;;;;;;21.83;16.30;;;11.70;1.00;;;;;;5025442;28;20433;-79
2021/04/01 04:23:50;;;;;;;19.80;15.60;;;11.80;1.00;;;;;;5028833;28;20460;-79
2021/04/01 04:26:17;;;;;;;22.87;16.93;;;12.00;1.00;;;;;;5026960;28;20448;-76
2021/04/01 04:28:45;;;;;;;23.40;15.27;;;12.20;1.00;;;;;;5047388;28;20468;-78
2021/04/01 04:31:11;;;;;;;20.33;14.67;;;12.30;1.00;;;;;;5027613;28;20518;-76
2021/04/01 04:33:38;;;;;;;23.23;16.23;;;12.50;1.00;;;;;;5033324;28;20485;-79
2021/04/01 04:36:08;;;;;;;22.73;16.13;;;12.60;1.00;;;;;;5030676;28;20544;-76
2021/04/01 04:38:35;;;;;;;19.87;15.37;;;12.60;1.00;;;;;;5030367;28;20558;-80
2021/04/01 04:41:01;;;;;;;21.67;16.73;;;12.70;1.00;;;;;;5032399;28;20439;-77
2021/04/01 04:43:30;;;;;;;22.23;15.37;;;12.70;1.00;;;;;;5037182;28;20416;-81
2021/04/01 04:45:56;;;;;;;49.47;22.27;;;12.80;1.00;;;;;;5038574;28;20452;-80
2021/04/01 04:48:23;;;;;;;26.90;17.17;;;12.80;1.00;;;;;;5028459;28;20486;-76
2021/04/01 04:50:51;;;;;;;21.23;15.03;;;12.90;1.00;;;;;;5032477;28;20606;-77
2021/04/01 04:53:17;;;;;;;18.80;15.53;;;12.90;1.00;;;;;;5029248;28;21928;-78
2021/04/01 04:55:55;;;;;;;19.67;15.10;;;12.90;1.00;;;;;;5026920;28;20460;-79
2021/04/01 04:58:24;;;;;;;21.93;17.00;;;13.00;1.00;;;;;;5048046;28;20432;-78
2021/04/01 05:01:02;;;;;;;20.13;15.87;;;13.00;1.00;;;;;;5036245;28;20552;-78
2021/04/01 05:06:22;;;;;;;23.13;16.57;;;13.10;1.00;;;;;;5031578;28;20435;-77
2021/04/01 05:08:49;;;;;;;23.50;16.30;;;13.10;1.00;;;;;;5038497;28;20583;-78
2021/04/01 05:11:15;;;;;;;17.63;14.80;;;13.10;1.00;;;;;;5031654;28;20456;-80
2021/04/01 05:13:42;;;;;;;26.87;17.13;;;13.20;1.00;;;;;;5033988;28;20520;-78
2021/04/01 05:16:08;;;;;;;27.23;16.60;;;13.20;1.00;;;;;;5049657;28;20787;-81
2021/04/01 05:18:34;;;;;;;21.87;17.03;;;13.30;1.00;;;;;;5035455;28;20455;-81
2021/04/01 05:21:03;;;;;;;24.93;15.80;;;13.30;1.00;;;;;;5064752;28;20534;-82
2021/04/01 05:23:37;;;;;;;21.93;17.50;;;13.30;1.00;;;;;;5057300;28;20443;-82
2021/04/01 05:26:38;;;;;;;19.80;15.87;;;13.30;1.00;;;;;;5040685;28;20476;-82
2021/04/01 05:29:07;;;;;;;25.87;16.63;;;13.40;1.00;;;;;;5042042;28;21257;-84
2021/04/01 05:31:35;;;;;;;18.27;15.73;;;13.40;1.00;;;;;;5055009;28;20476;-82
2021/04/01 05:34:02;;;;;;;21.80;15.50;;;13.40;1.00;;;;;;5041030;28;20473;-81
2021/04/01 05:36:30;;;;;;;20.53;15.13;;;13.50;1.00;;;;;;5048448;28;20452;-82
2021/04/01 05:38:59;;;;;;;21.40;15.20;;;13.50;1.00;;;;;;5049238;28;20428;-83
2021/04/01 05:41:28;;;;;;;21.60;15.80;;;13.50;1.00;;;;;;5048232;28;20437;-82
2021/04/01 05:44:03;;;;;;;23.00;16.07;;;13.50;1.00;;;;;;5044328;28;20942;-82
2021/04/01 05:46:35;;;;;;;27.50;17.90;;;13.60;1.00;;;;;;5044864;28;20456;-81
2021/04/01 05:49:10;;;;;;;19.07;16.30;;;13.60;1.00;;;;;;5047538;28;20559;-82
2021/04/01 05:57:38;;;;;;;26.77;19.47;;;13.80;1.00;;;;;;5034894;28;20433;-82
2021/04/01 06:00:30;;;;;;;19.50;15.23;;;13.80;1.00;;;;;;5056402;28;20445;-84
2021/04/01 06:03:17;;;;;;;26.17;18.57;;;13.90;1.00;;;;;;5068015;28;21410;-82
2021/04/01 06:05:46;;;;;;;24.70;16.23;;;14.00;1.00;;;;;;5058607;28;20461;-84
2021/04/01 06:08:15;;;;;;;22.73;18.30;;;14.10;1.00;;;;;;5053422;28;20473;-79
2021/04/01 06:10:42;;;;;;;27.73;19.03;;;14.20;1.00;;;;;;5052789;28;20535;-81
2021/04/01 06:13:10;;;;;;;23.63;17.60;;;14.30;1.00;;;;;;5049806;28;20460;-82
2021/04/01 06:15:37;;;;;;;19.30;15.60;;;14.30;1.00;;;;;;5052187;28;20446;-81
2021/04/01 06:18:10;;;;;;;21.40;16.97;;;14.40;1.00;;;;;;5049870;28;20449;-83
2021/04/01 06:20:39;;;;;;;28.23;18.33;;;14.50;1.00;;;;;;5058129;28;20422;-83
2021/04/01 06:23:05;;;;;;;28.80;18.63;;;14.50;1.00;;;;;;5043521;28;20446;-84
2021/04/01 06:25:35;;;;;;;27.53;17.33;;;14.50;1.00;;;;;;5049763;28;20478;-81
2021/04/01 06:28:07;;;;;;;23.50;17.90;;;14.50;1.00;;;;;;5059873;28;20480;-83
2021/04/01 06:30:44;;;;;;;26.70;18.00;;;14.50;1.00;;;;;;5043700;28;20500;-82
2021/04/01 06:33:16;;;;;;;23.00;16.70;;;14.50;1.00;;;;;;5044411;28;20569;-84
2021/04/01 06:35:45;;;;;;;21.80;15.73;;;14.50;1.00;;;;;;5062664;28;20420;-79
2021/04/01 06:38:20;;;;;;;29.60;17.70;;;14.60;1.00;;;;;;5068178;28;20453;-80
2021/04/01 06:40:50;;;;;;;21.90;17.13;;;14.70;1.00;;;;;;5065837;27;20413;-84
2021/04/01 06:43:51;;;;;;;25.93;17.03;;;14.80;1.00;;;;;;5067698;28;20455;-82
2021/04/01 06:46:19;;;;;;;23.73;16.30;;;14.90;1.00;;;;;;5056605;28;20471;-77
2021/04/01 06:51:46;;;;;;;27.27;16.87;;;15.20;1.00;;;;;;5058744;28;20458;-76
2021/04/01 06:54:22;;;;;;;38.90;18.40;;;15.40;1.00;;;;;;5058580;28;20463;-76
2021/04/01 06:56:54;;;;;;;26.10;18.53;;;15.50;1.00;;;;;;5055640;27;20450;-77
2021/04/01 06:59:28;;;;;;;26.00;18.70;;;15.60;1.00;;;;;;5072951;27;20433;-75
2021/04/01 07:02:03;;;;;;;25.60;17.20;;;15.70;1.00;;;;;;5064825;27;20942;-77
2021/04/01 07:04:34;;;;;;;23.60;17.23;;;15.70;1.00;;;;;;5054478;27;20427;-76
2021/04/01 07:07:04;;;;;;;25.33;17.50;;;15.80;1.00;;;;;;5060705;28;20402;-77
2021/04/01 07:09:38;;;;;;;21.90;18.03;;;15.90;1.00;;;;;;5056697;27;20458;-76
2021/04/01 07:12:13;;;;;;;27.07;18.47;;;16.10;1.00;;;;;;5059083;28;20403;-76
2021/04/01 07:14:42;;;;;;;25.23;17.90;;;16.10;1.00;;;;;;5049905;27;20445;-76
2021/04/01 07:17:11;;;;;;;24.63;18.50;;;16.20;1.00;;;;;;5072456;28;21559;-76
2021/04/01 07:31:43;;;;;;;26.47;18.17;;;16.60;1.00;;;;;;5040506;28;20545;-79
2021/04/01 07:46:05;;;;;;;28.47;20.30;;;16.80;1.00;;;;;;5037833;28;20443;-78
2021/04/01 07:48:42;;;;;;;28.60;18.17;;;17.00;1.00;;;;;;5051234;28;21382;-81
2021/04/01 07:51:11;;;;;;;34.47;20.10;;;17.20;1.00;;;;;;5032119;28;20448;-76
2021/04/01 07:53:39;;;;;;;39.30;22.33;;;17.40;1.00;;;;;;5039062;28;20463;-77
2021/04/01 07:56:17;;;;;;;30.50;18.73;;;17.50;1.00;;;;;;5036454;28;20506;-76
2021/04/01 07:59:07;;;;;;;33.60;21.30;;;17.60;1.00;;;;;;5039595;28;20501;-77
2021/04/01 08:01:44;;;;;;;23.20;17.50;;;17.60;1.00;;;;;;5048949;28;23310;-79
2021/04/01 08:04:12;;;;;;;34.20;19.60;;;17.60;1.00;;;;;;5038495;28;20546;-77
2021/04/01 08:06:38;;;;;;;25.80;20.17;;;17.50;1.00;;;;;;5041126;28;20539;-79
2021/04/01 08:09:07;;;;;;;34.13;21.20;;;17.50;1.00;;;;;;5043940;28;20415;-79
2021/04/01 08:11:37;;;;;;;29.87;20.27;;;17.60;1.00;;;;;;5035558;28;24404;-78
2021/04/01 08:14:08;;;;;;;26.53;19.40;;;17.70;1.00;;;;;;5036166;28;20425;-78
2021/04/01 08:16:40;;;;;;;31.50;19.60;;;17.70;1.00;;;;;;5046168;28;20452;-78
2021/04/01 08:19:11;;;;;;;33.20;22.27;;;17.80;1.00;;;;;;5054918;28;20448;-77
2021/04/01 08:21:40;;;;;;;28.00;20.40;;;17.80;1.00;;;;;;5051009;27;20451;-78
2021/04/01 08:24:12;;;;;;;41.00;23.13;;;17.90;1.00;;;;;;5041630;28;20467;-78
2021/04/01 08:26:46;;;;;;;27.23;20.97;;;18.10;1.00;;;;;;5047946;28;20540;-77
2021/04/01 08:32:17;;;;;;;30.40;22.50;;;18.50;1.00;;;;;;5028587;28;20540;-77
2021/04/01 08:34:48;;;;;;;33.70;24.40;;;18.70;1.00;;;;;;5044781;28;20422;-78
2021/04/01 08:37:17;;;;;;;28.27;22.67;;;18.90;1.00;;;;;;5043769;28;20481;-76
2021/04/01 08:39:45;;;;;;;36.20;25.57;;;19.00;1.00;;;;;;5049021;28;20922;-78
2021/04/01 08:42:36;;;;;;;33.30;22.67;;;19.10;1.00;;;;;;5043507;28;20507;-79
2021/04/01 08:45:30;;;;;;;34.33;25.50;;;19.20;1.00;;;;;;5038671;28;20471;-79
2021/04/01 08:48:33;;;;;;;34.80;23.53;;;19.00;1.00;;;;;;5038363;28;20428;-77
2021/04/01 08:51:14;;;;;;;35.50;23.47;;;18.80;1.00;;;;;;5033124;28;20446;-78
2021/04/01 08:53:54;;;;;;;32.53;23.90;;;18.50;1.00;;;;;;5033400;28;20477;-77
2021/04/01 08:56:31;;;;;;;39.60;24.80;;;18.40;1.00;;;;;;5034943;28;20456;-79
2021/04/01 08:59:02;;;;;;;30.00;24.37;;;18.30;1.00;;;;;;5025545;28;20455;-76
2021/04/01 09:01:31;;;;;;;36.80;25.30;;;18.30;1.00;;;;;;5028085;28;21038;-79
2021/04/01 09:04:00;;;;;;;36.37;25.77;;;18.20;1.00;;;;;;5047581;28;20474;-80
2021/04/01 09:06:31;;;;;;;34.37;25.47;;;18.10;1.00;;;;;;5028494;28;21129;-80
2021/04/01 09:09:05;;;;;;;36.93;25.47;;;18.00;1.00;;;;;;5021482;28;20458;-77
2021/04/01 09:11:36;;;;;;;40.47;27.13;;;17.90;1.00;;;;;;5023341;28;20475;-76
2021/04/01 09:14:14;;;;;;;34.90;26.20;;;17.90;1.00;;;;;;5021785;28;20439;-78
2021/04/01 09:16:46;;;;;;;33.90;25.47;;;17.80;1.00;;;;;;5038351;28;20459;-81
2021/04/01 09:19:14;;;;;;;35.13;24.30;;;17.70;1.00;;;;;;5056463;28;20491;-81
2021/04/01 09:21:44;;;;;;;37.50;23.07;;;17.60;1.00;;;;;;5042330;28;20421;-80
2021/04/01 09:24:11;;;;;;;31.73;23.10;;;17.60;1.00;;;;;;5031326;28;20475;-79
2021/04/01 09:26:47;;;;;;;37.13;25.33;;;17.60;1.00;;;;;;5030496;28;20461;-78
2021/04/01 09:29:14;;;;;;;31.33;25.30;;;17.70;1.00;;;;;;5031238;28;20454;-77
2021/04/01 09:31:44;;;;;;;30.23;24.67;;;17.50;1.00;;;;;;5029094;28;20840;-79
2021/04/01 09:34:12;;;;;;;34.20;25.30;;;17.40;1.00;;;;;;5021270;28;20444;-80
2021/04/01 09:36:41;;;;;;;33.03;24.43;;;17.50;1.00;;;;;;5024266;28;20470;-77
2021/04/01 09:39:24;;;;;;;31.00;24.07;;;17.60;1.00;;;;;;5022873;28;22592;-78
2021/04/01 09:41:56;;;;;;;30.13;24.40;;;17.90;1.00;;;;;;5027049;28;20450;-77
2021/04/01 09:44:25;;;;;;;38.57;25.10;;;18.10;1.00;;;;;;5031859;28;20468;-77
2021/04/01 09:46:58;;;;;;;40.53;26.23;;;18.30;1.00;;;;;;5031138;28;20491;-76
2021/04/01 09:49:31;;;;;;;36.70;26.60;;;18.50;1.00;;;;;;5029362;28;20441;-78
2021/04/01 09:51:59;;;;;;;30.27;24.50;;;18.60;1.00;;;;;;5034166;28;20472;-77
2021/04/01 09:54:26;;;;;;;37.00;26.43;;;18.80;1.00;;;;;;5031041;28;20490;-76
2021/04/01 09:56:58;;;;;;;36.53;26.07;;;19.00;1.00;;;;;;5030979;28;20450;-77
2021/04/01 09:59:39;;;;;;;33.03;24.73;;;19.40;1.00;;;;;;5032025;28;20472;-77
2021/04/01 10:02:09;;;;;;;33.90;24.97;;;19.70;1.00;;;;;;5034942;28;20456;-77
2021/04/01 10:04:37;;;;;;;36.43;26.53;;;19.90;1.00;;;;;;5050798;28;20468;-78
2021/04/01 10:07:14;;;;;;;35.50;27.10;;;19.80;1.00;;;;;;5039736;28;20563;-79
2021/04/01 10:09:49;;;;;;;36.33;24.90;;;19.80;1.00;;;;;;5038141;28;20447;-78
2021/04/01 10:12:19;;;;;;;36.10;26.73;;;19.80;1.00;;;;;;5041390;28;20449;-78
2021/04/01 10:14:51;;;;;;;32.47;25.80;;;20.00;1.00;;;;;;5037834;28;20446;-78
2021/04/01 10:17:19;;;;;;;31.70;25.90;;;20.10;1.00;;;;;;5048232;28;20456;-76
2021/04/01 10:19:49;;;;;;;41.50;27.33;;;19.90;1.00;;;;;;5054251;28;20476;-78
2021/04/01 10:22:20;;;;;;;33.23;26.90;;;19.80;1.00;;;;;;5039540;28;20460;-77
2021/04/01 10:25:15;;;;;;;37.43;28.43;;;19.70;1.00;;;;;;5042179;28;20416;-77
2021/04/01 10:27:49;;;;;;;33.20;24.70;;;19.70;1.00;;;;;;5002335;28;20473;-77
2021/04/01 10:30:17;;;;;;;34.60;25.27;;;19.70;1.00;;;;;;5032386;28;20437;-77
2021/04/01 10:32:51;;;;;;;33.23;24.60;;;19.70;1.00;;;;;;5028216;28;20975;-77
2021/04/01 10:35:22;;;;;;;36.67;26.90;;;19.60;1.00;;;;;;5039939;28;20457;-79
2021/04/01 10:37:51;;;;;;;35.23;27.93;;;19.40;1.00;;;;;;5027343;28;20504;-77
2021/04/01 10:40:20;;;;;;;33.53;26.10;;;19.30;1.00;;;;;;5032788;28;20417;-79
2021/04/01 10:42:49;;;;;;;34.27;26.20;;;19.30;1.00;;;;;;5042579;28;20448;-79
2021/04/01 10:45:20;;;;;;;38.07;26.70;;;19.30;1.00;;;;;;5019377;28;20444;-79
2021/04/01 10:47:56;;;;;;;37.63;29.40;;;19.40;1.00;;;;;;5039223;28;20461;-78
2021/04/01 10:50:23;;;;;;;37.70;26.33;;;19.40;1.00;;;;;;5022368;28;20441;-78
2021/04/01 10:52:49;;;;;;;34.40;26.10;;;19.50;1.00;;;;;;5042582;28;20567;-78
2021/04/01 10:55:15;;;;;;;37.67;28.80;;;19.40;1.00;;;;;;5033408;28;20456;-79
2021/04/01 10:57:42;;;;;;;33.70;27.30;;;19.30;1.00;;;;;;5051454;28;20460;-78
2021/04/01 11:00:12;;;;;;;38.50;28.17;;;19.10;1.00;;;;;;5030022;28;20526;-77
2021/04/01 11:02:41;;;;;;;36.33;26.73;;;18.90;1.00;;;;;;5026669;28;20448;-78
2021/04/01 11:05:09;;;;;;;35.73;26.80;;;18.80;1.00;;;;;;5016616;28;20903;-79
2021/04/01 11:07:46;;;;;;;39.30;27.27;;;18.80;1.00;;;;;;5032457;28;21343;-78
2021/04/01 11:10:19;;;;;;;35.07;27.17;;;18.70;1.00;;;;;;5023471;28;20940;-78
2021/04/01 11:12:49;;;;;;;41.90;28.03;;;18.70;1.00;;;;;;5034052;28;20455;-78
2021/04/01 11:15:18;;;;;;;39.13;28.80;;;18.60;1.00;;;;;;5025129;28;20436;-79
2021/04/01 11:17:50;;;;;;;37.60;27.50;;;18.60;1.00;;;;;;5039091;28;20521;-79
2021/04/01 11:20:18;;;;;;;36.33;26.97;;;18.50;1.00;;;;;;5031377;28;20422;-84
2021/04/01 11:23:02;;;;;;;36.70;29.43;;;18.40;1.00;;;;;;5057778;28;20487;-83
2021/04/01 11:25:29;;;;;;;40.10;28.50;;;18.40;1.00;;;;;;5052196;28;20447;-87
2021/04/01 11:27:57;;;;;;;45.63;28.93;;;18.50;1.00;;;;;;5063630;28;20465;-86
2021/04/01 11:33:24;;;;;;;31.57;23.70;;;18.90;1.00;;;;;;5055110;28;20548;-83
2021/04/01 11:38:40;;;;;;;36.40;25.10;;;19.40;1.00;;;;;;5059815;28;20444;-84
2021/04/01 11:41:09;;;;;;;35.30;24.70;;;19.60;1.00;;;;;;5033278;28;20413;-84
2021/04/01 11:43:37;;;;;;;35.93;26.13;;;19.70;1.00;;;;;;5056270;28;21026;-83
2021/04/01 11:46:16;;;;;;;37.07;26.07;;;19.70;1.00;;;;;;5041737;28;20466;-84
2021/04/01 11:48:43;;;;;;;33.60;24.60;;;19.70;1.00;;;;;;5070990;28;20429;-84
2021/04/01 11:51:16;;;;;;;43.97;27.80;;;19.70;1.00;;;;;;5046629;28;20413;-84
2021/04/01 11:53:43;;;;;;;35.77;25.80;;;19.60;1.00;;;;;;5047432;28;20441;-84
2021/04/01 11:56:10;;;;;;;36.30;25.77;;;19.60;1.00;;;;;;5053330;28;20469;-84
2021/04/01 11:58:36;;;;;;;32.80;25.83;;;19.40;1.00;;;;;;5054456;28;20519;-85
2021/04/01 12:01:10;;;;;;;34.80;27.00;;;19.40;1.00;;;;;;5055495;28;20458;-82
2021/04/01 12:03:48;;;;;;;33.67;26.50;;;19.30;1.00;;;;;;5054242;28;20408;-83
2021/04/01 12:06:16;;;;;;;36.50;25.07;;;19.30;1.00;;;;;;5049935;28;20461;-83
2021/04/01 12:08:43;;;;;;;33.40;24.20;;;19.40;1.00;;;;;;5054715;28;20494;-84
2021/04/01 12:11:09;;;;;;;35.90;26.27;;;19.40;1.00;;;;;;5061030;28;20455;-83
2021/04/01 12:13:36;;;;;;;41.10;26.90;;;19.60;1.00;;;;;;5055131;28;20421;-85
2021/04/01 12:16:02;;;;;;;34.60;27.70;;;19.80;1.00;;;;;;5050295;28;20450;-85
2021/04/01 12:18:40;;;;;;;37.77;24.60;;;19.90;1.00;;;;;;5038318;28;20465;-84
2021/04/01 12:21:08;;;;;;;41.37;27.43;;;19.90;1.00;;;;;;5054261;28;20473;-83
2021/04/01 12:23:45;;;;;;;35.73;24.30;;;19.80;1.00;;;;;;5062115;28;20452;-84
2021/04/01 12:26:12;;;;;;;36.97;25.77;;;19.80;1.00;;;;;;5062045;27;20417;-84
2021/04/01 12:28:39;;;;;;;33.50;23.97;;;19.90;1.00;;;;;;5058148;28;20472;-83
2021/04/01 12:31:14;;;;;;;39.80;26.63;;;19.80;1.00;;;;;;5051222;28;20455;-83
2021/04/01 12:33:52;;;;;;;35.60;24.83;;;19.70;1.00;;;;;;5036107;28;20428;-84
2021/04/01 12:36:29;;;;;;;32.87;25.40;;;19.50;1.00;;;;;;5050165;28;20427;-84
2021/04/01 12:38:56;;;;;;;34.13;25.30;;;19.20;1.00;;;;;;5045388;28;20469;-83
2021/04/01 12:41:26;;;;;;;38.03;24.07;;;19.20;1.00;;;;;;5047372;28;20468;-83
2021/04/01 12:43:54;;;;;;;33.10;24.53;;;19.20;1.00;;;;;;5053509;28;20453;-83
2021/04/01 12:46:21;;;;;;;33.30;25.77;;;19.30;1.00;;;;;;5051089;28;20415;-83
2021/04/01 12:48:52;;;;;;;32.97;23.50;;;19.60;1.00;;;;;;5043219;28;20604;-82
2021/04/01 12:51:25;;;;;;;36.07;25.10;;;19.90;1.00;;;;;;5062333;28;20428;-84
2021/04/01 12:54:02;;;;;;;34.07;24.23;;;20.80;1.00;;;;;;5070123;28;20426;-84
2021/04/01 12:56:32;;;;;;;35.23;25.30;;;22.30;1.00;;;;;;5051691;28;20427;-84
2021/04/01 12:59:16;;;;;;;29.70;23.10;;;23.20;1.00;;;;;;5074039;28;20600;-84
2021/04/01 13:04:26;;;;;;;33.73;26.00;;;22.90;1.00;;;;;;5050292;28;20447;-85
2021/04/01 13:07:00;;;;;;;37.00;26.67;;;22.40;1.00;;;;;;5064209;28;20461;-83
2021/04/01 13:09:37;;;;;;;37.13;26.37;;;22.10;1.00;;;;;;5056973;28;20497;-86
2021/04/01 13:12:13;;;;;;;35.83;26.93;;;21.90;1.00;;;;;;5069182;28;20475;-86
2021/04/01 13:14:43;;;;;;;35.00;27.23;;;21.60;1.00;;;;;;5068413;28;20493;-85
2021/04/01 13:17:10;;;;;;;34.10;26.27;;;21.50;1.00;;;;;;5088317;27;20415;-86
2021/04/01 13:19:38;;;;;;;43.77;27.97;;;22.10;1.00;;;;;;5072300;27;20468;-87
2021/04/01 13:22:09;;;;;;;34.80;28.60;;;23.00;1.00;;;;;;5087890;27;20417;-87
2021/04/01 13:24:42;;;;;;;31.40;26.47;;;23.90;1.00;;;;;;5067845;27;20420;-84
2021/04/01 13:27:11;;;;;;;34.37;27.30;;;24.00;1.00;;;;;;5081851;27;20410;-86
2021/04/01 13:29:40;;;;;;;34.33;28.17;;;23.50;1.00;;;;;;5072239;27;20527;-86
2021/04/01 13:32:11;;;;;;;33.33;26.13;;;23.10;1.00;;;;;;5087656;27;20404;-83
2021/04/01 13:34:42;;;;;;;33.60;27.03;;;22.80;1.00;;;;;;5075374;27;20433;-83
2021/04/01 13:37:13;;;;;;;33.43;26.90;;;22.40;1.00;;;;;;5074292;27;20407;-82
2021/04/01 13:39:41;;;;;;;36.20;27.43;;;22.10;1.00;;;;;;5093103;27;20439;-82